createdAt,value
2019-03-24T00:00:34.838Z,98292.97
2019-03-24T00:03:03.127Z,98295.19
2019-03-24T00:05:31.396Z,98288.02
2019-03-24T00:07:59.675Z,98284.78
2019-03-24T00:10:27.945Z,98287.71
2019-03-24T00:12:56.229Z,98289.85
2019-03-24T00:15:26.543Z,98302.34
2019-03-24T00:17:54.481Z,98296.92
2019-03-24T00:20:22.733Z,98302.06
2019-03-24T00:22:51.014Z,98293.61
2019-03-24T00:25:19.276Z,98288.00
2019-03-24T00:27:47.552Z,98288.11
2019-03-24T00:30:15.817Z,98290.21
2019-03-24T00:32:44.112Z,98287.56
2019-03-24T00:35:12.383Z,98287.09
2019-03-24T00:37:40.652Z,98287.36
2019-03-24T00:40:08.985Z,98283.76
2019-03-24T00:42:37.229Z,98283.12
2019-03-24T00:45:08.422Z,98279.84
2019-03-24T00:47:36.677Z,98274.70
2019-03-24T00:50:07.926Z,98278.95
2019-03-24T00:52:36.217Z,98268.86
2019-03-24T00:55:07.853Z,98263.81
2019-03-24T00:57:37.593Z,98263.81
2019-03-24T01:00:08.016Z,98262.89
2019-03-24T01:02:36.267Z,98255.61
2019-03-24T01:05:06.275Z,98256.86
2019-03-24T01:07:34.533Z,98253.54
2019-03-24T01:10:03.074Z,98255.89
2019-03-24T01:12:31.365Z,98246.23
2019-03-24T01:14:59.622Z,98242.08
2019-03-24T01:17:27.891Z,98241.98
2019-03-24T01:19:56.149Z,98244.66
2019-03-24T01:22:24.404Z,98236.88
2019-03-24T01:24:52.673Z,98239.23
2019-03-24T01:27:20.925Z,98242.91
2019-03-24T01:29:49.220Z,98246.35
2019-03-24T01:32:17.483Z,98240.70
2019-03-24T01:34:45.763Z,98238.63
2019-03-24T01:37:14.030Z,98234.84
2019-03-24T01:39:42.306Z,98229.73
2019-03-24T01:42:10.560Z,98225.22
2019-03-24T01:44:38.825Z,98223.72
2019-03-24T01:47:07.086Z,98221.91
2019-03-24T01:49:35.362Z,98231.17
2019-03-24T01:52:03.637Z,98230.09
2019-03-24T01:54:31.894Z,98232.61
2019-03-24T01:57:00.157Z,98231.94
2019-03-24T01:59:28.417Z,98238.91
2019-03-24T02:01:56.681Z,98234.09
2019-03-24T02:04:24.941Z,98229.45
2019-03-24T02:06:53.228Z,98229.80
2019-03-24T02:09:21.494Z,98222.01
2019-03-24T02:11:50.903Z,98218.69
2019-03-24T02:14:19.299Z,98218.30
2019-03-24T02:16:47.564Z,98223.60
2019-03-24T02:19:15.827Z,98219.01
2019-03-24T02:21:44.094Z,98220.47
2019-03-24T02:24:12.390Z,98217.87
2019-03-24T02:26:40.649Z,98214.67
2019-03-24T02:29:08.916Z,98216.47
2019-03-24T02:31:37.184Z,98212.57
2019-03-24T02:34:05.446Z,98209.35
2019-03-24T02:36:33.737Z,98213.75
2019-03-24T02:39:02.045Z,98215.00
2019-03-24T02:41:30.298Z,98211.27
2019-03-24T02:43:58.569Z,98216.47
2019-03-24T02:46:26.823Z,98213.98
2019-03-24T02:48:55.090Z,98212.00
2019-03-24T02:51:23.357Z,98217.48
2019-03-24T02:53:51.639Z,98220.73
2019-03-24T02:56:19.912Z,98224.69
2019-03-24T02:58:48.172Z,98221.55
2019-03-24T03:01:16.429Z,98217.00
2019-03-24T03:03:44.731Z,98220.25
2019-03-24T03:06:12.972Z,98219.20
2019-03-24T03:08:41.221Z,98217.09
2019-03-24T03:11:09.495Z,98214.45
2019-03-24T03:13:37.756Z,98213.45
2019-03-24T03:16:06.034Z,98209.17
2019-03-24T03:18:34.276Z,98206.85
2019-03-24T03:21:02.535Z,98208.09
2019-03-24T03:23:30.805Z,98208.83
2019-03-24T03:25:59.090Z,98207.59
2019-03-24T03:28:27.362Z,98201.95
2019-03-24T03:30:55.634Z,98202.10
2019-03-24T03:33:23.894Z,98208.09
2019-03-24T03:35:52.261Z,98206.51
2019-03-24T03:38:20.532Z,98200.70
2019-03-24T03:40:48.810Z,98203.09
2019-03-24T03:43:17.067Z,98213.62
2019-03-24T03:45:45.348Z,98206.57
2019-03-24T03:48:13.606Z,98205.17
2019-03-24T03:50:41.864Z,97575.41
2019-03-24T03:53:10.129Z,98208.80
2019-03-24T03:55:38.404Z,98209.74
2019-03-24T03:58:06.685Z,98210.27
2019-03-24T04:00:35.993Z,98203.03
2019-03-24T04:03:04.329Z,98203.38
2019-03-24T04:05:32.582Z,98204.06
2019-03-24T04:08:01.523Z,98204.79
2019-03-24T04:10:29.886Z,98205.52
2019-03-24T04:12:58.134Z,98204.67
2019-03-24T04:15:26.474Z,98200.22
2019-03-24T04:17:54.725Z,98205.19
2019-03-24T04:20:23.021Z,98204.29
2019-03-24T04:22:51.355Z,98210.16
2019-03-24T04:25:19.627Z,98204.39
2019-03-24T04:27:47.894Z,98206.31
2019-03-24T04:30:16.163Z,98201.95
2019-03-24T04:32:44.415Z,98202.52
2019-03-24T04:35:12.710Z,98199.69
2019-03-24T04:37:40.968Z,98200.92
2019-03-24T04:40:09.258Z,98195.24
2019-03-24T04:42:37.493Z,98206.23
2019-03-24T04:45:05.883Z,98201.28
2019-03-24T04:47:34.176Z,98204.14
2019-03-24T04:50:02.441Z,98195.66
2019-03-24T04:52:30.721Z,98201.14
2019-03-24T04:54:58.988Z,98191.77
2019-03-24T04:57:27.241Z,98199.08
2019-03-24T04:59:55.501Z,98190.22
2019-03-24T05:02:23.766Z,98195.91
2019-03-24T05:04:52.025Z,98198.38
2019-03-24T05:07:20.305Z,98199.80
2019-03-24T05:09:48.598Z,98196.05
2019-03-24T05:12:16.856Z,98196.94
2019-03-24T05:14:45.166Z,98203.52
2019-03-24T05:17:13.402Z,98199.63
2019-03-24T05:19:41.670Z,98194.14
2019-03-24T05:22:09.939Z,98201.03
2019-03-24T05:24:38.194Z,98194.63
2019-03-24T05:27:06.462Z,98197.45
2019-03-24T05:29:34.727Z,98197.80
2019-03-24T05:32:02.990Z,98197.98
2019-03-24T05:34:31.248Z,98205.76
2019-03-24T05:36:59.506Z,98198.14
2019-03-24T05:39:27.767Z,98199.39
2019-03-24T05:41:56.030Z,98208.23
2019-03-24T05:44:24.361Z,98189.47
2019-03-24T05:46:52.650Z,98187.50
2019-03-24T05:49:20.886Z,98190.50
2019-03-24T05:51:49.157Z,98191.91
2019-03-24T05:54:17.412Z,98192.98
2019-03-24T05:56:45.676Z,98192.08
2019-03-24T05:59:13.936Z,98189.05
2019-03-24T06:01:42.223Z,98188.53
2019-03-24T06:04:10.478Z,98184.46
2019-03-24T06:06:38.738Z,98187.63
2019-03-24T06:09:06.999Z,98176.25
2019-03-24T06:11:35.259Z,98180.48
2019-03-24T06:14:03.525Z,98176.02
2019-03-24T06:16:31.783Z,98174.73
2019-03-24T06:19:00.041Z,98178.61
2019-03-24T06:21:28.311Z,98181.55
2019-03-24T06:23:56.568Z,98177.92
2019-03-24T06:26:24.830Z,98183.20
2019-03-24T06:28:53.115Z,98192.69
2019-03-24T06:31:21.370Z,98185.89
2019-03-24T06:33:49.636Z,98178.38
2019-03-24T06:36:17.900Z,98172.80
2019-03-24T06:38:46.167Z,98166.69
2019-03-24T06:41:14.482Z,98163.59
2019-03-24T06:43:42.777Z,98162.98
2019-03-24T06:46:11.033Z,98162.39
2019-03-24T06:48:39.288Z,98164.28
2019-03-24T06:51:07.561Z,98162.77
2019-03-24T06:53:35.814Z,98160.89
2019-03-24T06:56:04.076Z,98162.53
2019-03-24T06:58:32.350Z,98162.92
2019-03-24T07:01:00.629Z,98159.06
2019-03-24T07:03:29.171Z,98159.62
2019-03-24T07:05:57.434Z,98161.05
2019-03-24T07:08:25.689Z,98155.34
2019-03-24T07:10:53.956Z,98158.31
2019-03-24T07:13:22.212Z,98164.81
2019-03-24T07:15:50.477Z,98166.08
2019-03-24T07:18:18.763Z,98166.47
2019-03-24T07:20:47.016Z,98165.64
2019-03-24T07:23:15.282Z,98172.36
2019-03-24T07:25:43.538Z,98171.61
2019-03-24T07:28:11.827Z,98173.98
2019-03-24T07:30:40.095Z,98171.14
2019-03-24T07:33:08.382Z,98172.01
2019-03-24T07:35:36.670Z,98165.86
2019-03-24T07:38:04.938Z,98157.45
2019-03-24T07:40:33.192Z,98156.58
2019-03-24T07:43:01.469Z,98154.64
2019-03-24T07:45:29.730Z,98150.86
2019-03-24T07:47:57.983Z,98144.06
2019-03-24T07:50:26.260Z,98145.96
2019-03-24T07:52:54.550Z,98145.21
2019-03-24T07:55:22.806Z,98141.71
2019-03-24T07:57:51.228Z,98137.66
2019-03-24T08:00:28.598Z,98139.27
2019-03-24T08:02:56.890Z,98139.71
2019-03-24T08:05:25.155Z,98141.55
2019-03-24T08:07:53.415Z,98139.30
2019-03-24T08:10:21.682Z,98129.34
2019-03-24T08:12:50.056Z,98132.62
2019-03-24T08:15:18.316Z,98124.09
2019-03-24T08:17:46.581Z,98123.72
2019-03-24T08:20:14.873Z,98120.41
2019-03-24T08:22:43.149Z,98118.80
2019-03-24T08:25:11.416Z,98119.69
2019-03-24T08:27:39.690Z,98110.08
2019-03-24T08:30:07.963Z,98101.88
2019-03-24T08:32:36.221Z,98105.91
2019-03-24T08:35:05.923Z,98105.78
2019-03-24T08:37:34.216Z,98102.87
2019-03-24T08:40:02.515Z,98098.49
2019-03-24T08:42:30.787Z,98105.22
2019-03-24T08:44:59.058Z,98107.66
2019-03-24T08:47:27.319Z,98103.06
2019-03-24T08:49:55.593Z,98105.45
2019-03-24T08:52:23.871Z,98104.61
2019-03-24T08:54:52.136Z,98101.34
2019-03-24T08:57:20.401Z,98104.26
2019-03-24T08:59:48.670Z,98103.09
2019-03-24T09:02:16.939Z,98099.12
2019-03-24T09:04:45.217Z,98098.89
2019-03-24T09:07:13.479Z,98091.50
2019-03-24T09:09:41.747Z,98093.27
2019-03-24T09:12:10.029Z,98087.44
2019-03-24T09:14:38.291Z,98089.23
2019-03-24T09:17:06.548Z,98085.98
2019-03-24T09:19:34.809Z,98084.49
2019-03-24T09:22:03.069Z,98081.50
2019-03-24T09:24:31.324Z,98076.15
2019-03-24T09:26:59.588Z,98071.96
2019-03-24T09:29:27.923Z,98066.92
2019-03-24T09:31:56.185Z,98066.47
2019-03-24T09:34:24.443Z,98063.03
2019-03-24T09:36:52.701Z,98058.39
2019-03-24T09:39:20.960Z,98061.81
2019-03-24T09:41:49.317Z,98057.77
2019-03-24T09:44:17.582Z,98057.94
2019-03-24T09:46:45.842Z,98049.48
2019-03-24T09:49:14.108Z,97931.78
2019-03-24T09:51:42.367Z,98040.96
2019-03-24T09:54:10.646Z,98036.92
2019-03-24T09:56:38.896Z,98032.36
2019-03-24T09:59:07.160Z,98033.60
2019-03-24T10:01:35.424Z,98026.13
2019-03-24T10:04:03.683Z,98027.94
2019-03-24T10:06:31.983Z,98016.97
2019-03-24T10:09:00.276Z,98018.94
2019-03-24T10:11:28.509Z,98016.48
2019-03-24T10:13:56.801Z,98006.37
2019-03-24T10:16:25.066Z,98013.93
2019-03-24T10:18:53.328Z,98005.65
2019-03-24T10:21:21.641Z,97998.83
2019-03-24T10:23:49.923Z,97996.13
2019-03-24T10:26:18.187Z,97989.89
2019-03-24T10:28:46.442Z,97988.25
2019-03-24T10:31:14.701Z,97986.03
2019-03-24T10:33:42.966Z,97973.91
2019-03-24T10:36:11.241Z,97967.59
2019-03-24T10:38:39.504Z,97973.11
2019-03-24T10:41:07.767Z,97974.06
2019-03-24T10:43:36.029Z,97972.39
2019-03-24T10:46:04.310Z,97965.01
2019-03-24T10:48:33.891Z,97962.77
2019-03-24T10:51:02.338Z,97962.05
2019-03-24T10:53:30.619Z,97957.79
2019-03-24T10:55:58.893Z,97957.11
2019-03-24T10:58:27.226Z,97952.63
2019-03-24T11:00:55.571Z,97950.30
2019-03-24T11:03:23.836Z,97944.50
2019-03-24T11:05:52.090Z,97944.27
2019-03-24T11:08:20.402Z,97935.44
2019-03-24T11:10:48.678Z,97931.31
2019-03-24T11:13:16.939Z,97940.84
2019-03-24T11:15:45.201Z,97939.11
2019-03-24T11:18:13.466Z,97936.55
2019-03-24T11:20:41.752Z,97931.42
2019-03-24T11:23:10.012Z,97930.57
2019-03-24T11:25:38.292Z,97928.89
2019-03-24T11:28:06.550Z,97918.83
2019-03-24T11:30:34.806Z,97914.86
2019-03-24T11:33:03.083Z,97909.75
2019-03-24T11:35:31.353Z,97912.41
2019-03-24T11:37:59.605Z,97916.65
2019-03-24T11:40:27.886Z,97914.20
2019-03-24T11:42:56.172Z,97912.63
2019-03-24T11:45:24.435Z,97912.20
2019-03-24T11:47:52.737Z,97904.48
2019-03-24T11:50:20.994Z,97897.20
2019-03-24T11:52:49.257Z,97898.39
2019-03-24T11:55:17.519Z,97890.98
2019-03-24T11:57:45.790Z,97892.78
2019-03-24T12:00:15.412Z,97884.34
2019-03-24T12:02:43.673Z,97877.10
2019-03-24T12:05:11.949Z,97881.16
2019-03-24T12:07:40.205Z,97873.84
2019-03-24T12:10:09.210Z,97872.28
2019-03-24T12:12:37.510Z,97870.27
2019-03-24T12:15:06.413Z,97876.30
2019-03-24T12:17:34.678Z,97871.36
2019-03-24T12:20:03.731Z,97860.84
2019-03-24T12:22:32.004Z,97850.59
2019-03-24T12:25:00.419Z,97847.16
2019-03-24T12:27:28.705Z,97847.14
2019-03-24T12:29:56.975Z,97840.66
2019-03-24T12:32:25.246Z,97837.23
2019-03-24T12:34:53.504Z,97832.77
2019-03-24T12:37:21.769Z,97828.13
2019-03-24T12:39:50.026Z,97829.66
2019-03-24T12:42:18.313Z,97823.70
2019-03-24T12:44:46.573Z,97816.15
2019-03-24T12:47:14.839Z,97809.67
2019-03-24T12:49:43.100Z,97815.28
2019-03-24T12:52:13.122Z,97808.91
2019-03-24T12:54:41.366Z,97805.89
2019-03-24T12:57:09.629Z,97809.19
2019-03-24T12:59:37.916Z,97806.09
2019-03-24T13:02:06.176Z,97799.84
2019-03-24T13:04:34.442Z,97800.17
2019-03-24T13:07:02.704Z,97793.00
2019-03-24T13:09:33.479Z,97792.48
2019-03-24T13:12:00.981Z,97786.70
2019-03-24T13:14:30.749Z,97785.03
2019-03-24T13:16:59.291Z,97780.12
2019-03-24T13:19:27.570Z,97772.61
2019-03-24T13:21:55.851Z,97773.20
2019-03-24T13:24:24.109Z,97777.75
2019-03-24T13:26:52.408Z,97776.52
2019-03-24T13:29:20.655Z,97770.83
2019-03-24T13:31:49.020Z,97767.56
2019-03-24T13:34:17.253Z,97774.64
2019-03-24T13:36:45.524Z,97770.70
2019-03-24T13:39:13.795Z,97766.27
2019-03-24T13:41:42.063Z,97767.69
2019-03-24T13:44:10.331Z,97756.00
2019-03-24T13:46:38.595Z,97754.45
2019-03-24T13:49:06.924Z,97752.47
2019-03-24T13:51:35.174Z,97746.69
2019-03-24T13:54:03.435Z,97739.89
2019-03-24T13:56:31.699Z,97741.35
2019-03-24T13:58:59.977Z,97733.58
2019-03-24T14:01:28.255Z,97725.98
2019-03-24T14:03:56.523Z,97727.50
2019-03-24T14:06:24.777Z,97725.09
2019-03-24T14:08:53.044Z,97732.33
2019-03-24T14:11:21.304Z,97728.86
2019-03-24T14:13:49.563Z,97734.48
2019-03-24T14:16:17.829Z,97725.26
2019-03-24T14:18:46.093Z,97727.79
2019-03-24T14:21:14.386Z,97723.58
2019-03-24T14:23:42.657Z,97731.48
2019-03-24T14:26:10.909Z,97722.98
2019-03-24T14:28:39.173Z,97716.89
2019-03-24T14:31:07.465Z,97722.74
2019-03-24T14:33:35.694Z,97715.81
2019-03-24T14:36:03.959Z,97710.19
2019-03-24T14:38:32.236Z,97703.12
2019-03-24T14:41:00.505Z,97703.25
2019-03-24T14:43:28.767Z,97696.71
2019-03-24T14:45:57.020Z,97705.08
2019-03-24T14:48:25.296Z,97705.28
2019-03-24T14:50:54.983Z,97694.79
2019-03-24T14:53:23.404Z,97687.84
2019-03-24T14:55:51.669Z,97693.20
2019-03-24T14:58:19.936Z,97690.97
2019-03-24T15:00:48.963Z,97693.33
2019-03-24T15:03:17.234Z,97691.60
2019-03-24T15:05:45.484Z,97696.77
2019-03-24T15:08:13.757Z,97689.42
2019-03-24T15:10:42.011Z,97686.05
2019-03-24T15:13:10.271Z,97689.68
2019-03-24T15:15:38.544Z,97689.22
2019-03-24T15:18:06.795Z,97687.62
2019-03-24T15:20:35.075Z,97689.90
2019-03-24T15:23:03.349Z,97689.08
2019-03-24T15:25:31.642Z,97687.88
2019-03-24T15:27:59.906Z,97682.85
2019-03-24T15:30:28.160Z,97682.98
2019-03-24T15:32:56.422Z,97684.61
2019-03-24T15:35:24.688Z,97679.88
2019-03-24T15:37:52.946Z,97677.39
2019-03-24T15:40:21.225Z,97681.74
2019-03-24T15:42:49.491Z,97692.37
2019-03-24T15:45:17.742Z,97692.00
2019-03-24T15:47:46.009Z,97686.10
2019-03-24T15:50:14.269Z,97693.83
2019-03-24T15:52:42.553Z,97704.81
2019-03-24T15:55:10.815Z,97702.45
2019-03-24T15:57:39.081Z,97702.06
2019-03-24T16:00:07.415Z,97709.47
2019-03-24T16:02:35.673Z,97715.17
2019-03-24T16:05:05.676Z,97710.84
2019-03-24T16:07:34.009Z,97708.64
2019-03-24T16:10:02.270Z,97712.78
2019-03-24T16:12:30.527Z,97713.20
2019-03-24T16:14:58.794Z,97716.03
2019-03-24T16:17:27.061Z,97716.19
2019-03-24T16:19:55.319Z,97714.15
2019-03-24T16:22:23.616Z,97718.84
2019-03-24T16:24:51.883Z,97720.33
2019-03-24T16:27:20.146Z,97729.07
2019-03-24T16:29:48.412Z,97729.41
2019-03-24T16:32:16.666Z,97734.12
2019-03-24T16:34:44.934Z,97745.63
2019-03-24T16:37:13.207Z,97741.70
2019-03-24T16:39:41.471Z,97736.72
2019-03-24T16:42:09.734Z,97749.54
2019-03-24T16:44:37.999Z,97742.36
2019-03-24T16:47:06.266Z,97744.55
2019-03-24T16:49:34.526Z,97746.09
2019-03-24T16:52:02.812Z,97742.56
2019-03-24T16:54:31.087Z,97741.03
2019-03-24T16:56:59.361Z,97742.05
2019-03-24T16:59:27.618Z,97739.55
2019-03-24T17:01:55.882Z,97748.92
2019-03-24T17:04:24.156Z,97749.03
2019-03-24T17:06:52.414Z,97748.09
2019-03-24T17:09:20.717Z,97760.77
2019-03-24T17:11:48.985Z,97760.92
2019-03-24T17:14:17.282Z,97769.59
2019-03-24T17:16:45.514Z,97770.38
2019-03-24T17:19:13.806Z,97771.64
2019-03-24T17:21:49.949Z,97783.87
2019-03-24T17:24:12.068Z,97784.58
2019-03-24T17:26:40.344Z,97788.78
2019-03-24T17:29:08.667Z,97793.41
2019-03-24T17:31:36.943Z,97800.23
2019-03-24T17:34:05.197Z,97805.00
2019-03-24T17:36:33.463Z,97800.36
2019-03-24T17:39:01.765Z,97805.02
2019-03-24T17:41:30.063Z,97806.36
2019-03-24T17:44:03.131Z,97805.19
2019-03-24T17:46:28.304Z,97804.62
2019-03-24T17:48:56.568Z,97807.52
2019-03-24T17:51:24.830Z,97806.06
2019-03-24T17:53:53.087Z,97815.11
2019-03-24T17:56:21.348Z,97814.89
2019-03-24T17:58:49.643Z,97823.16
2019-03-24T18:01:17.903Z,97826.14
2019-03-24T18:03:46.173Z,97826.91
2019-03-24T18:06:14.471Z,97834.27
2019-03-24T18:08:42.749Z,97840.08
2019-03-24T18:11:11.011Z,97837.59
2019-03-24T18:13:39.279Z,97843.46
2019-03-24T18:16:07.551Z,97838.38
2019-03-24T18:18:35.813Z,97839.13
2019-03-24T18:21:04.074Z,97842.97
2019-03-24T18:23:32.357Z,97845.64
2019-03-24T18:26:00.611Z,97858.87
2019-03-24T18:28:28.885Z,97860.68
2019-03-24T18:30:57.150Z,97865.03
2019-03-24T18:33:25.458Z,97869.96
2019-03-24T18:35:53.686Z,97873.42
2019-03-24T18:38:21.958Z,97880.50
2019-03-24T18:40:50.224Z,97873.42
2019-03-24T18:43:18.491Z,97879.03
2019-03-24T18:45:46.751Z,97879.56
2019-03-24T18:48:15.029Z,97873.23
2019-03-24T18:50:43.295Z,97885.62
2019-03-24T18:53:11.559Z,97884.41
2019-03-24T18:55:39.821Z,97884.24
2019-03-24T18:58:08.085Z,97887.91
2019-03-24T19:00:36.357Z,97890.11
2019-03-24T19:03:04.644Z,97893.33
2019-03-24T19:05:35.096Z,97895.81
2019-03-24T19:08:02.906Z,97905.94
2019-03-24T19:10:31.182Z,97897.67
2019-03-24T19:12:59.441Z,97903.41
2019-03-24T19:15:27.709Z,97906.34
2019-03-24T19:17:55.972Z,97912.07
2019-03-24T19:20:24.260Z,97908.59
2019-03-24T19:22:52.524Z,97911.70
2019-03-24T19:25:20.787Z,97923.95
2019-03-24T19:27:49.058Z,97924.34
2019-03-24T19:30:18.063Z,97923.46
2019-03-24T19:32:46.403Z,97929.75
2019-03-24T19:35:15.138Z,97928.16
2019-03-24T19:37:43.404Z,97930.33
2019-03-24T19:40:14.929Z,97930.47
2019-03-24T19:42:43.203Z,97928.87
2019-03-24T19:45:11.473Z,97933.30
2019-03-24T19:47:39.745Z,97929.45
2019-03-24T19:50:08.015Z,97928.33
2019-03-24T19:52:44.371Z,97931.27
2019-03-24T19:55:07.250Z,97931.70
2019-03-24T19:57:35.536Z,97932.72
2019-03-24T20:00:05.143Z,97925.73
2019-03-24T20:02:33.412Z,97932.16
2019-03-24T20:05:01.688Z,97925.41
2019-03-24T20:07:29.953Z,97922.06
2019-03-24T20:09:58.221Z,97925.84
2019-03-24T20:12:26.482Z,97931.12
2019-03-24T20:14:54.759Z,97933.56
2019-03-24T20:17:23.024Z,97927.44
2019-03-24T20:19:51.296Z,97924.08
2019-03-24T20:22:19.587Z,97919.06
2019-03-24T20:24:58.545Z,97919.59
2019-03-24T20:27:26.845Z,97921.27
2019-03-24T20:29:55.110Z,97917.27
2019-03-24T20:32:23.372Z,97912.48
2019-03-24T20:34:51.639Z,97914.02
2019-03-24T20:37:20.773Z,97914.03
2019-03-24T20:39:49.052Z,97919.18
2019-03-24T20:42:17.325Z,97919.59
2019-03-24T20:44:45.595Z,97921.86
2019-03-24T20:47:13.859Z,97919.84
2019-03-24T20:49:42.132Z,97913.59
2019-03-24T20:52:10.400Z,97908.78
2019-03-24T20:54:38.710Z,97903.52
2019-03-24T20:57:06.974Z,97900.89
2019-03-24T20:59:35.236Z,97890.64
2019-03-24T21:02:03.520Z,97887.16
2019-03-24T21:04:31.775Z,97882.01
2019-03-24T21:07:00.043Z,97880.78
2019-03-24T21:09:28.307Z,97881.66
2019-03-24T21:11:56.577Z,97884.19
2019-03-24T21:14:24.851Z,97885.45
2019-03-24T21:16:53.131Z,97888.05
2019-03-24T21:19:21.434Z,97884.94
2019-03-24T21:21:49.792Z,97884.42
2019-03-24T21:24:18.153Z,97883.92
2019-03-24T21:26:46.422Z,97884.90
2019-03-24T21:29:14.747Z,97878.36
2019-03-24T21:31:43.017Z,97879.00
2019-03-24T21:34:11.276Z,97879.89
2019-03-24T21:36:39.549Z,97883.75
2019-03-24T21:39:08.231Z,97876.23
2019-03-24T21:41:36.651Z,97883.88
2019-03-24T21:44:04.915Z,97886.15
2019-03-24T21:46:33.206Z,97883.75
2019-03-24T21:49:01.574Z,97886.37
2019-03-24T21:51:29.972Z,97882.48
2019-03-24T21:53:58.260Z,97876.47
2019-03-24T21:56:26.614Z,97875.08
2019-03-24T21:58:54.981Z,97876.83
2019-03-24T22:01:23.250Z,97731.66
2019-03-24T22:03:51.546Z,97869.95
2019-03-24T22:06:19.825Z,97873.58
2019-03-24T22:08:48.097Z,97872.83
2019-03-24T22:11:16.436Z,97869.17
2019-03-24T22:13:44.714Z,97865.16
2019-03-24T22:16:12.988Z,97861.53
2019-03-24T22:18:41.252Z,97867.66
2019-03-24T22:21:09.612Z,97867.30
2019-03-24T22:23:37.941Z,97861.02
2019-03-24T22:26:06.176Z,97864.88
2019-03-24T22:28:34.462Z,97863.99
2019-03-24T22:31:02.828Z,97861.36
2019-03-24T22:33:31.126Z,97862.97
2019-03-24T22:35:59.397Z,97858.70
2019-03-24T22:38:27.684Z,97870.82
2019-03-24T22:40:56.004Z,97857.03
2019-03-24T22:43:24.306Z,97853.86
2019-03-24T22:45:52.583Z,97857.00
2019-03-24T22:48:20.865Z,97854.98
2019-03-24T22:50:49.248Z,97858.25
2019-03-24T22:53:17.535Z,97851.09
2019-03-24T22:55:45.846Z,97854.13
2019-03-24T22:58:14.143Z,97869.91
2019-03-24T23:00:44.145Z,97852.67
2019-03-24T23:03:12.477Z,97850.56
2019-03-24T23:05:40.757Z,97848.55
2019-03-24T23:08:09.051Z,97849.44
2019-03-24T23:10:40.156Z,97848.19
2019-03-24T23:13:08.461Z,97842.83
2019-03-24T23:15:36.793Z,97838.54
2019-03-24T23:18:05.248Z,97833.43
2019-03-24T23:20:33.547Z,97834.19
2019-03-24T23:23:01.885Z,97834.97
2019-03-24T23:25:30.225Z,97830.22
2019-03-24T23:27:58.535Z,97821.31
2019-03-24T23:30:26.810Z,97821.84
2019-03-24T23:32:55.083Z,97815.20
2019-03-24T23:35:23.421Z,97810.19
2019-03-24T23:37:51.733Z,97816.08
2019-03-24T23:40:20.044Z,97812.72
2019-03-24T23:42:48.503Z,97810.06
2019-03-24T23:45:16.828Z,97800.43
2019-03-24T23:47:45.126Z,97805.56
2019-03-24T23:50:13.412Z,97801.70
2019-03-24T23:52:41.821Z,97803.82
2019-03-24T23:55:10.115Z,97808.23
2019-03-24T23:57:38.410Z,97808.84
